Time;durP1;ratioP1;P1;durP2;ratioP2;P2;SDS_P1;SDS_P2;PMS_P1;PMS_P2;Temp;Humidity;BMP_temperature;BMP_pressure;BME280_temperature;BME280_humidity;BME280_pressure;Samples;Min_cycle;Max_cycle;Signal;HPM_P1;HPM_P2
2022/05/01 00:00:19;;;;;;;6.77;4.50;;;21.30;46.50;;;;;;5038761;28;88361;-65
2022/05/01 00:02:48;;;;;;;5.40;3.57;;;21.30;46.50;;;;;;5041305;28;90936;-65
2022/05/01 00:05:16;;;;;;;4.67;3.57;;;21.30;46.50;;;;;;5040866;27;88490;-66
2022/05/01 00:07:45;;;;;;;6.13;4.27;;;21.30;46.50;;;;;;5041694;27;88399;-66
2022/05/01 00:10:13;;;;;;;3.53;3.03;;;21.30;46.50;;;;;;5042162;28;88444;-66
2022/05/01 00:12:42;;;;;;;4.43;3.47;;;21.30;46.50;;;;;;5041573;28;90670;-65
2022/05/01 00:15:10;;;;;;;4.50;2.87;;;21.20;46.40;;;;;;5034771;27;92784;-66
2022/05/01 00:17:38;;;;;;;4.60;3.77;;;21.20;46.40;;;;;;5001481;28;88596;-66
2022/05/01 00:20:07;;;;;;;3.50;3.20;;;21.20;46.40;;;;;;5002007;28;88148;-65
2022/05/01 00:22:35;;;;;;;5.07;3.70;;;21.20;46.40;;;;;;5001648;28;90727;-65
2022/05/01 00:25:06;;;;;;;3.67;2.80;;;21.20;46.40;;;;;;5000993;28;89961;-66
2022/05/01 00:27:33;;;;;;;4.07;2.97;;;21.20;46.40;;;;;;5001449;28;88267;-66
2022/05/01 00:30:02;;;;;;;5.03;3.53;;;21.20;46.40;;;;;;5001460;28;88444;-66
2022/05/01 00:36:25;;;;;;;3.50;2.83;;;21.20;46.40;;;;;;5000820;28;93656;-66
2022/05/01 00:38:03;;;;;;;3.07;2.77;;;21.10;46.20;;;;;;5003485;28;88477;-66
2022/05/01 00:40:33;;;;;;;4.60;3.37;;;21.10;46.20;;;;;;5015696;28;88642;-66
2022/05/01 00:43:04;;;;;;;3.53;2.80;;;21.10;46.20;;;;;;5001302;28;89163;-66
2022/05/01 00:45:32;;;;;;;5.13;2.70;;;21.10;46.20;;;;;;5001545;28;92801;-65
2022/05/01 00:48:00;;;;;;;2.67;2.43;;;21.10;46.20;;;;;;5001125;28;88411;-65
2022/05/01 00:50:28;;;;;;;4.83;3.10;;;21.10;46.20;;;;;;5000892;28;89424;-65
2022/05/01 00:52:56;;;;;;;3.37;2.50;;;21.10;46.20;;;;;;5000589;28;89322;-65
2022/05/01 00:55:24;;;;;;;4.73;3.20;;;21.10;46.20;;;;;;5000490;28;89996;-66
2022/05/01 00:57:53;;;;;;;3.57;2.60;;;21.10;46.20;;;;;;5000845;28;88394;-67
2022/05/01 01:00:21;;;;;;;3.03;2.73;;;21.10;46.10;;;;;;5000829;28;88458;-65
2022/05/01 01:02:50;;;;;;;5.27;2.63;;;21.10;46.10;;;;;;5000253;28;90623;-66
2022/05/01 01:05:18;;;;;;;2.90;2.37;;;21.10;46.10;;;;;;5001135;28;89926;-66
2022/05/01 01:07:46;;;;;;;3.20;2.90;;;21.10;46.10;;;;;;5001610;28;88325;-67
2022/05/01 01:10:14;;;;;;;2.90;2.40;;;21.10;46.00;;;;;;5000325;28;88527;-66
2022/05/01 01:12:54;;;;;;;2.97;2.43;;;21.10;46.00;;;;;;5000681;28;89352;-66
2022/05/01 01:15:24;;;;;;;3.00;2.47;;;21.10;46.00;;;;;;5000379;28;90199;-66
2022/05/01 01:17:54;;;;;;;5.17;2.93;;;21.10;46.10;;;;;;5003235;28;88511;-66
2022/05/01 01:20:24;;;;;;;2.43;2.23;;;21.10;46.10;;;;;;5004918;28;88544;-66
2022/05/01 01:22:54;;;;;;;3.17;2.70;;;21.10;46.20;;;;;;5003721;28;91053;-65
2022/05/01 01:25:23;;;;;;;2.97;2.63;;;21.10;46.10;;;;;;5002939;28;90663;-67
2022/05/01 01:27:51;;;;;;;3.30;2.43;;;21.10;46.20;;;;;;5003539;28;88441;-67
2022/05/01 01:33:04;;;;;;;2.30;2.10;;;21.10;46.20;;;;;;5003389;28;90827;-67
2022/05/01 01:35:33;;;;;;;5.27;2.50;;;21.10;46.20;;;;;;5003602;28;90406;-67
2022/05/01 01:38:03;;;;;;;3.37;2.83;;;21.10;46.20;;;;;;5003599;28;88361;-67
2022/05/01 01:40:31;;;;;;;2.90;2.40;;;21.10;46.30;;;;;;5002749;28;88498;-67
2022/05/01 01:43:00;;;;;;;5.47;2.10;;;21.10;46.30;;;;;;5003816;28;90694;-67
2022/05/01 01:45:30;;;;;;;3.30;2.83;;;21.10;46.30;;;;;;5003571;28;88913;-67
2022/05/01 01:48:09;;;;;;;2.60;2.40;;;21.00;46.80;;;;;;5011295;28;88393;-67
2022/05/01 01:50:37;;;;;;;4.37;2.40;;;21.00;46.20;;;;;;5022661;28;88528;-67
2022/05/01 01:53:08;;;;;;;2.60;2.40;;;21.00;46.20;;;;;;5024022;28;93884;-67
2022/05/01 01:55:37;;;;;;;2.47;2.27;;;21.00;46.20;;;;;;5021487;28;89491;-67
2022/05/01 01:58:05;;;;;;;3.43;2.17;;;21.00;46.20;;;;;;5024309;28;88391;-67
2022/05/01 02:00:33;;;;;;;2.73;2.27;;;21.00;46.20;;;;;;5010474;28;88597;-67
2022/05/01 02:03:03;;;;;;;3.23;2.07;;;21.00;46.20;;;;;;5003304;28;92113;-67
2022/05/01 02:05:31;;;;;;;2.30;2.10;;;21.00;46.20;;;;;;5003347;28;89862;-67
2022/05/01 02:08:00;;;;;;;2.83;2.10;;;21.00;46.20;;;;;;5021670;28;88428;-67
2022/05/01 02:10:30;;;;;;;3.40;2.50;;;20.90;46.10;;;;;;5022160;28;88370;-67
2022/05/01 02:13:00;;;;;;;3.20;2.17;;;21.00;46.20;;;;;;5023300;28;92141;-67
2022/05/01 02:15:30;;;;;;;3.50;2.40;;;20.90;46.10;;;;;;5023176;28;90030;-67
2022/05/01 02:17:58;;;;;;;2.97;2.37;;;20.90;46.10;;;;;;5023241;28;88348;-67
2022/05/01 02:20:27;;;;;;;2.67;2.30;;;20.90;46.10;;;;;;5021740;28;88470;-67
2022/05/01 02:22:55;;;;;;;2.83;2.20;;;20.90;46.10;;;;;;5023516;28;93104;-67
2022/05/01 02:25:23;;;;;;;2.70;1.97;;;20.90;46.10;;;;;;5022149;28;92731;-67
2022/05/01 02:27:53;;;;;;;3.60;2.10;;;20.90;46.00;;;;;;5022815;28;88541;-67
2022/05/01 02:30:21;;;;;;;3.50;2.40;;;20.90;46.00;;;;;;5011066;28;88408;-67
2022/05/01 02:32:48;;;;;;;2.03;1.83;;;20.90;46.00;;;;;;5003190;28;90751;-67
2022/05/01 02:35:17;;;;;;;3.60;2.40;;;20.90;46.00;;;;;;5010481;28;89667;-67
2022/05/01 02:37:46;;;;;;;3.97;2.30;;;20.90;46.60;;;;;;5023017;28;88383;-67
2022/05/01 02:40:14;;;;;;;4.43;2.30;;;20.90;46.00;;;;;;5021302;28;88446;-67
2022/05/01 02:42:42;;;;;;;2.43;2.20;;;20.90;46.00;;;;;;5022397;28;90671;-67
2022/05/01 02:45:13;;;;;;;2.87;2.53;;;20.80;45.90;;;;;;5022217;28;90077;-67
2022/05/01 02:47:41;;;;;;;2.40;1.90;;;20.80;45.90;;;;;;5023141;28;88408;-67
2022/05/01 02:50:10;;;;;;;2.83;2.37;;;20.80;45.80;;;;;;5010166;28;88444;-67
2022/05/01 02:52:38;;;;;;;2.77;2.40;;;20.80;45.80;;;;;;5002551;28;90122;-67
2022/05/01 02:55:07;;;;;;;2.90;2.20;;;20.80;45.90;;;;;;5009660;28;93027;-67
2022/05/01 02:57:35;;;;;;;5.27;2.87;;;20.80;45.80;;;;;;5023160;28;88419;-67
2022/05/01 03:00:05;;;;;;;2.87;2.47;;;20.80;45.80;;;;;;5022489;28;88510;-70
2022/05/01 03:02:34;;;;;;;3.30;3.00;;;20.80;45.80;;;;;;5022919;28;90234;-67
2022/05/01 03:05:04;;;;;;;3.30;2.37;;;20.80;45.80;;;;;;5015583;28;90392;-67
2022/05/01 03:07:32;;;;;;;5.20;2.37;;;20.80;45.80;;;;;;5002669;28;88771;-67
2022/05/01 03:10:00;;;;;;;4.93;2.40;;;20.80;45.80;;;;;;5013479;28;89072;-67
2022/05/01 03:12:29;;;;;;;2.27;2.03;;;20.70;45.60;;;;;;5022356;28;92975;-68
2022/05/01 03:14:57;;;;;;;2.57;2.27;;;20.70;45.60;;;;;;5016619;28;90578;-66
2022/05/01 03:22:10;;;;;;;3.03;2.73;;;20.70;45.60;;;;;;5002213;28;88706;-67
2022/05/01 03:23:00;;;;;;;2.23;2.03;;;20.70;45.60;;;;;;5021941;28;90748;-67
2022/05/01 03:25:28;;;;;;;4.00;2.37;;;20.70;45.60;;;;;;5020247;28;88950;-67
2022/05/01 03:27:56;;;;;;;3.17;2.20;;;20.60;45.50;;;;;;5022839;28;88209;-67
2022/05/01 03:30:24;;;;;;;4.43;2.90;;;20.70;45.60;;;;;;5008443;28;90199;-67
2022/05/01 03:32:52;;;;;;;4.40;2.70;;;20.70;45.50;;;;;;5002219;28;90860;-67
2022/05/01 03:35:22;;;;;;;3.80;2.97;;;20.60;45.50;;;;;;5013909;28;90069;-67
2022/05/01 03:37:51;;;;;;;5.37;2.87;;;20.60;45.40;;;;;;5022168;28;88499;-67
2022/05/01 03:40:19;;;;;;;2.47;2.27;;;20.70;45.50;;;;;;5008328;28;88474;-67
2022/05/01 03:42:47;;;;;;;3.30;3.00;;;20.60;45.30;;;;;;5001761;28;90632;-67
2022/05/01 03:45:15;;;;;;;2.40;2.17;;;20.60;45.30;;;;;;5012357;28;92851;-66
2022/05/01 03:47:43;;;;;;;6.03;2.63;;;20.60;45.30;;;;;;5021741;28;88315;-67
2022/05/01 03:50:11;;;;;;;3.07;2.30;;;20.60;45.30;;;;;;5011337;28;88602;-67
2022/05/01 03:52:41;;;;;;;3.33;2.30;;;20.60;45.30;;;;;;5002066;28;90680;-67
2022/05/01 03:55:09;;;;;;;4.13;2.90;;;20.60;45.30;;;;;;5001516;28;89994;-67
2022/05/01 03:57:37;;;;;;;2.50;2.30;;;20.60;45.30;;;;;;5001664;28;88240;-67
2022/05/01 04:00:10;;;;;;;2.43;2.23;;;20.60;45.20;;;;;;5002151;28;88537;-67
2022/05/01 04:02:42;;;;;;;3.60;2.63;;;20.60;45.20;;;;;;5001952;28;90555;-68
2022/05/01 04:05:11;;;;;;;3.73;2.97;;;20.60;45.90;;;;;;5011598;28;92260;-67
2022/05/01 04:07:41;;;;;;;2.27;2.07;;;20.60;45.20;;;;;;5021984;28;88103;-67
2022/05/01 04:10:09;;;;;;;4.73;2.60;;;20.60;45.20;;;;;;5013351;28;88594;-67
2022/05/01 04:12:38;;;;;;;3.00;2.60;;;20.50;45.10;;;;;;5001212;28;90571;-66
2022/05/01 04:15:08;;;;;;;2.87;2.50;;;20.50;45.10;;;;;;5011043;28;93023;-67
2022/05/01 04:17:38;;;;;;;4.13;2.60;;;20.50;45.10;;;;;;5021750;28;88439;-67
2022/05/01 04:20:08;;;;;;;3.67;2.37;;;20.50;45.10;;;;;;5021018;28;89650;-67
2022/05/01 04:22:38;;;;;;;2.73;2.00;;;20.50;45.10;;;;;;5020913;28;91976;-67
2022/05/01 04:25:16;;;;;;;2.80;2.57;;;20.50;45.10;;;;;;5019790;28;89540;-68
2022/05/01 04:27:44;;;;;;;2.80;2.47;;;20.50;45.10;;;;;;5021770;28;88368;-68
2022/05/01 04:30:13;;;;;;;4.53;2.87;;;20.50;45.00;;;;;;5013899;28;88390;-67
2022/05/01 04:32:49;;;;;;;4.07;2.70;;;20.50;45.00;;;;;;5001441;28;89984;-67
2022/05/01 04:35:25;;;;;;;4.33;2.80;;;20.50;45.00;;;;;;5011793;28;92471;-67
2022/05/01 04:37:53;;;;;;;3.00;2.50;;;20.50;45.00;;;;;;5021629;28;88254;-67
2022/05/01 04:40:23;;;;;;;2.90;2.63;;;20.50;44.90;;;;;;5012297;28;88512;-66
2022/05/01 04:42:51;;;;;;;3.60;2.67;;;20.50;44.90;;;;;;5001314;28;92222;-67
2022/05/01 04:45:19;;;;;;;3.37;2.97;;;20.50;44.80;;;;;;5010333;28;92605;-67
2022/05/01 04:47:47;;;;;;;3.57;2.77;;;20.50;44.80;;;;;;5021276;28;88431;-67
2022/05/01 04:50:16;;;;;;;5.30;2.70;;;20.60;44.80;;;;;;5004683;28;88459;-67
2022/05/01 04:52:44;;;;;;;3.43;2.30;;;20.70;44.70;;;;;;5001143;28;90778;-67
2022/05/01 04:55:12;;;;;;;2.53;2.20;;;20.70;44.60;;;;;;5010522;28;88839;-67
2022/05/01 04:57:42;;;;;;;6.17;3.03;;;20.80;44.60;;;;;;5021478;28;88324;-67
2022/05/01 05:00:11;;;;;;;2.97;2.50;;;21.10;44.60;;;;;;5020477;28;88598;-67
2022/05/01 05:02:39;;;;;;;5.47;2.47;;;21.40;44.40;;;;;;5020774;28;89774;-67
2022/05/01 05:05:09;;;;;;;3.07;2.43;;;21.90;44.20;;;;;;5008033;28;89713;-67
2022/05/01 05:07:37;;;;;;;3.17;2.57;;;22.40;43.80;;;;;;5001348;28;88048;-67
2022/05/01 05:10:05;;;;;;;2.43;2.20;;;22.80;43.30;;;;;;5001647;28;88493;-67
2022/05/01 05:12:34;;;;;;;2.77;2.23;;;23.00;43.00;;;;;;5000508;28;90660;-67
2022/05/01 05:15:04;;;;;;;2.23;2.03;;;22.80;42.80;;;;;;5008177;28;92300;-67
2022/05/01 05:17:32;;;;;;;3.23;2.93;;;22.60;42.80;;;;;;5021069;28;88383;-67
2022/05/01 05:20:00;;;;;;;2.87;2.30;;;22.40;42.90;;;;;;5019275;28;88489;-67
2022/05/01 05:22:28;;;;;;;4.20;2.73;;;22.10;42.90;;;;;;5020271;28;90179;-67
2022/05/01 05:24:56;;;;;;;2.23;2.03;;;21.90;43.10;;;;;;5013840;28;89525;-66
2022/05/01 05:27:25;;;;;;;3.23;2.63;;;21.70;43.20;;;;;;5001012;28;88404;-66
2022/05/01 05:29:54;;;;;;;3.63;2.60;;;21.60;43.30;;;;;;5007438;28;88575;-66
2022/05/01 05:32:24;;;;;;;3.30;2.60;;;21.50;43.40;;;;;;5021028;28;90230;-66
2022/05/01 05:34:55;;;;;;;3.57;2.87;;;21.40;43.40;;;;;;5014893;28;88899;-66
2022/05/01 05:37:23;;;;;;;3.53;2.50;;;21.30;43.40;;;;;;5001000;28;88426;-66
2022/05/01 05:39:52;;;;;;;3.40;2.63;;;21.20;43.40;;;;;;5006757;28;88410;-66
2022/05/01 05:42:19;;;;;;;2.80;2.37;;;21.20;43.50;;;;;;5019685;28;89588;-65
2022/05/01 05:44:47;;;;;;;3.03;2.40;;;21.20;43.50;;;;;;5014709;28;90103;-66
2022/05/01 05:47:15;;;;;;;3.63;2.80;;;21.10;43.50;;;;;;5000092;28;88386;-66
2022/05/01 05:49:45;;;;;;;3.10;2.37;;;21.10;43.50;;;;;;5000427;28;88484;-66
2022/05/01 05:52:20;;;;;;;3.53;2.70;;;21.10;43.50;;;;;;5000525;28;90579;-66
2022/05/01 05:54:48;;;;;;;5.20;2.80;;;21.00;43.40;;;;;;5004669;28;90057;-66
2022/05/01 05:57:16;;;;;;;3.70;2.73;;;21.00;43.50;;;;;;5020549;28;88314;-66
2022/05/01 05:59:44;;;;;;;2.83;2.43;;;21.00;43.50;;;;;;5018073;28;88831;-66
2022/05/01 06:02:12;;;;;;;3.23;2.77;;;21.00;43.50;;;;;;4999968;28;90643;-66
2022/05/01 06:04:41;;;;;;;4.33;3.23;;;21.00;43.50;;;;;;5005295;28;88435;-65
2022/05/01 06:07:10;;;;;;;2.57;2.27;;;21.00;43.50;;;;;;5023437;28;88277;-66
2022/05/01 06:09:44;;;;;;;3.40;2.33;;;21.10;44.20;;;;;;5019034;28;88457;-65
2022/05/01 06:12:13;;;;;;;4.10;2.60;;;21.00;43.40;;;;;;5002058;28;89410;-66
2022/05/01 06:14:41;;;;;;;3.00;2.47;;;21.00;43.70;;;;;;5002944;28;89927;-66
2022/05/01 06:17:09;;;;;;;3.30;2.57;;;21.10;43.50;;;;;;5003356;28;88136;-66
2022/05/01 06:19:37;;;;;;;2.53;1.90;;;21.10;43.50;;;;;;5003637;28;88361;-66
2022/05/01 06:22:05;;;;;;;3.50;2.47;;;21.10;43.50;;;;;;5003530;28;90615;-65
2022/05/01 06:24:35;;;;;;;3.53;2.57;;;21.00;43.50;;;;;;5004036;28;93473;-66
2022/05/01 06:27:03;;;;;;;3.40;2.80;;;21.10;43.50;;;;;;5021693;28;88577;-66
2022/05/01 06:29:31;;;;;;;2.43;2.03;;;21.00;43.50;;;;;;5022102;28;90310;-66
2022/05/01 06:31:59;;;;;;;3.57;2.37;;;21.00;43.50;;;;;;5022684;28;90118;-66
2022/05/01 06:34:27;;;;;;;2.90;2.57;;;21.00;43.50;;;;;;5006161;28;90267;-66
2022/05/01 06:36:55;;;;;;;2.80;2.33;;;21.00;43.50;;;;;;5021011;28;88459;-66
2022/05/01 06:39:23;;;;;;;2.60;2.40;;;21.00;43.50;;;;;;5020766;28;88406;-66
2022/05/01 06:41:53;;;;;;;3.43;2.00;;;21.00;43.50;;;;;;5001323;28;90977;-66
2022/05/01 06:44:21;;;;;;;4.10;2.30;;;21.00;43.50;;;;;;5007172;28;89758;-67
2022/05/01 06:46:48;;;;;;;5.50;2.97;;;21.00;43.60;;;;;;5003143;28;88284;-66
2022/05/01 06:49:17;;;;;;;3.93;2.77;;;21.00;43.60;;;;;;5002477;28;88450;-66
2022/05/01 06:51:45;;;;;;;2.27;2.07;;;21.00;43.60;;;;;;5002346;28;90292;-66
2022/05/01 06:54:13;;;;;;;2.73;2.37;;;21.00;43.60;;;;;;5014389;28;88959;-66
2022/05/01 06:56:44;;;;;;;4.37;2.57;;;21.00;43.60;;;;;;5022552;28;88590;-65
2022/05/01 06:59:13;;;;;;;5.20;2.70;;;20.90;43.60;;;;;;5017782;28;88469;-65
2022/05/01 07:01:41;;;;;;;2.47;2.27;;;20.90;43.60;;;;;;5002792;28;90722;-65
2022/05/01 07:04:10;;;;;;;3.87;2.50;;;20.90;43.60;;;;;;5015867;28;89020;-66
2022/05/01 07:06:38;;;;;;;3.23;2.27;;;20.90;43.60;;;;;;5011492;27;88333;-66
2022/05/01 07:09:06;;;;;;;2.90;2.47;;;20.90;43.60;;;;;;5018225;28;88604;-66
2022/05/01 07:11:34;;;;;;;2.67;2.43;;;20.90;43.70;;;;;;5029006;28;90908;-66
2022/05/01 07:14:01;;;;;;;3.23;2.57;;;20.90;43.60;;;;;;5008820;28;90398;-66
2022/05/01 07:16:31;;;;;;;3.87;3.20;;;20.90;43.60;;;;;;5020360;28;88419;-66
2022/05/01 07:19:01;;;;;;;3.77;3.00;;;20.90;43.70;;;;;;5017009;28;88603;-65
2022/05/01 07:21:29;;;;;;;4.57;2.97;;;20.80;43.60;;;;;;5013420;28;90578;-66
2022/05/01 07:23:57;;;;;;;6.03;3.70;;;20.90;43.70;;;;;;5010675;28;88781;-66
2022/05/01 07:26:25;;;;;;;4.60;3.70;;;20.80;43.60;;;;;;5021488;28;88383;-65
2022/05/01 07:28:53;;;;;;;6.97;4.13;;;20.90;43.70;;;;;;5021743;28;88528;-66
2022/05/01 07:31:21;;;;;;;7.97;5.20;;;20.90;43.70;;;;;;5008585;28;90600;-66
2022/05/01 07:33:51;;;;;;;11.10;4.97;;;20.90;43.80;;;;;;5003144;28;90049;-65
2022/05/01 07:36:19;;;;;;;11.03;6.67;;;20.90;43.90;;;;;;5015055;28;88504;-65
2022/05/01 07:38:48;;;;;;;7.47;6.00;;;20.90;44.00;;;;;;5019615;28;88624;-65
2022/05/01 07:41:17;;;;;;;11.83;7.07;;;21.00;44.10;;;;;;5018601;28;90614;-66
2022/05/01 07:43:45;;;;;;;12.90;7.97;;;21.00;44.20;;;;;;5003567;28;90130;-65
2022/05/01 07:46:13;;;;;;;12.13;7.60;;;21.00;44.20;;;;;;5003946;28;88413;-66
2022/05/01 07:48:42;;;;;;;12.80;7.87;;;21.00;44.30;;;;;;5013030;28;88550;-66
2022/05/01 07:51:11;;;;;;;15.23;9.50;;;21.10;44.50;;;;;;5020350;28;90112;-66
2022/05/01 07:53:39;;;;;;;15.97;10.53;;;21.10;44.60;;;;;;5020123;28;90070;-66
2022/05/01 07:56:07;;;;;;;19.63;11.97;;;21.20;44.80;;;;;;5017725;28;88459;-66
2022/05/01 07:58:35;;;;;;;15.17;11.03;;;21.30;44.80;;;;;;5016078;28;88479;-66
2022/05/01 08:01:04;;;;;;;17.50;10.57;;;21.30;45.00;;;;;;5015482;28;92312;-66
2022/05/01 08:06:19;;;;;;;20.03;12.30;;;21.40;45.40;;;;;;5018130;28;88482;-66
2022/05/01 08:08:47;;;;;;;20.13;13.13;;;21.50;45.80;;;;;;5015037;28;88661;-66
2022/05/01 08:11:15;;;;;;;19.57;13.33;;;21.60;46.20;;;;;;5011865;28;89297;-65
2022/05/01 08:13:43;;;;;;;18.97;13.27;;;21.60;46.40;;;;;;5008592;28;93205;-66
2022/05/01 08:16:11;;;;;;;23.17;14.93;;;21.60;46.50;;;;;;5008179;28;89165;-66
2022/05/01 08:21:28;;;;;;;24.93;15.73;;;21.60;47.10;;;;;;5010725;28;91073;-66
2022/05/01 08:23:56;;;;;;;23.33;15.33;;;21.70;47.50;;;;;;5012271;28;90048;-65
2022/05/01 08:26:24;;;;;;;25.50;16.13;;;21.70;47.90;;;;;;5010181;28;88511;-67
2022/05/01 08:28:53;;;;;;;24.73;16.73;;;21.70;48.20;;;;;;5007916;28;88605;-66
2022/05/01 08:31:21;;;;;;;30.43;19.13;;;21.80;48.60;;;;;;5002690;28;89267;-66
2022/05/01 08:33:49;;;;;;;34.83;20.27;;;21.80;48.80;;;;;;5007697;28;90470;-66
2022/05/01 08:36:17;;;;;;;37.83;23.10;;;21.80;49.00;;;;;;5009277;28;88598;-66
2022/05/01 08:38:46;;;;;;;42.40;24.23;;;21.80;49.30;;;;;;5007890;28;88715;-66
2022/05/01 08:41:15;;;;;;;45.47;23.60;;;21.80;49.60;;;;;;5007910;28;90026;-66
2022/05/01 08:43:43;;;;;;;41.07;23.93;;;21.80;49.90;;;;;;5009760;28;91466;-66
2022/05/01 08:46:20;;;;;;;48.10;26.00;;;21.80;50.10;;;;;;5008310;28;88356;-66
2022/05/01 08:48:51;;;;;;;51.20;25.67;;;21.80;50.30;;;;;;5005194;28;88751;-66
2022/05/01 08:51:19;;;;;;;40.43;24.00;;;21.90;50.50;;;;;;5012091;28;93622;-65
2022/05/01 08:53:48;;;;;;;44.67;25.63;;;21.90;50.50;;;;;;5007378;28;90412;-65
2022/05/01 08:56:16;;;;;;;43.03;24.77;;;21.90;50.40;;;;;;5016951;28;88516;-66
2022/05/01 08:58:44;;;;;;;46.07;24.90;;;21.90;50.30;;;;;;5017679;28;88582;-66
2022/05/01 09:01:12;;;;;;;50.53;24.60;;;21.90;50.10;;;;;;5009379;28;90742;-66
2022/05/01 09:03:43;;;;;;;51.33;26.87;;;21.90;50.00;;;;;;5005125;28;90080;-65
2022/05/01 09:06:11;;;;;;;40.93;26.17;;;21.90;49.90;;;;;;5011732;28;89381;-66
2022/05/01 09:08:39;;;;;;;51.97;27.67;;;21.90;49.90;;;;;;5012046;28;88565;-66
2022/05/01 09:13:54;;;;;;;52.60;27.50;;;21.90;49.80;;;;;;4995937;28;90318;-66
2022/05/01 09:16:22;;;;;;;46.20;28.00;;;21.90;49.60;;;;;;5010505;28;88646;-65
2022/05/01 09:18:50;;;;;;;54.87;28.70;;;21.90;49.60;;;;;;5012961;28;89099;-66
2022/05/01 09:21:18;;;;;;;50.27;30.00;;;21.90;49.50;;;;;;5012822;28;92572;-66
2022/05/01 09:23:47;;;;;;;46.33;27.60;;;21.90;49.30;;;;;;5011624;28;92988;-66
2022/05/01 09:26:18;;;;;;;42.40;27.83;;;21.80;49.20;;;;;;5010601;28;88562;-66
2022/05/01 09:28:50;;;;;;;52.23;27.73;;;21.80;49.10;;;;;;5013719;28;88584;-65
2022/05/01 09:31:18;;;;;;;43.47;27.73;;;21.80;49.00;;;;;;5014788;28;90725;-65
2022/05/01 09:33:47;;;;;;;44.47;28.87;;;21.80;48.90;;;;;;5011867;28;90583;-65
2022/05/01 09:36:36;;;;;;;52.37;29.00;;;21.80;48.80;;;;;;5006929;28;88635;-65
2022/05/01 09:39:04;;;;;;;49.07;29.70;;;21.80;48.70;;;;;;5008822;28;88650;-65
2022/05/01 09:41:34;;;;;;;47.57;29.00;;;21.80;48.60;;;;;;5016849;28;94078;-65
2022/05/01 09:44:12;;;;;;;47.10;28.47;;;21.70;48.50;;;;;;5018320;28;89950;-66
2022/05/01 09:46:40;;;;;;;51.63;29.57;;;21.70;48.50;;;;;;5010562;28;88651;-65
2022/05/01 09:49:10;;;;;;;44.53;28.57;;;21.70;48.30;;;;;;5018386;28;88930;-66
2022/05/01 09:51:39;;;;;;;40.33;28.00;;;21.70;48.30;;;;;;5000013;28;91592;-65
2022/05/01 09:54:07;;;;;;;44.67;28.13;;;21.70;48.20;;;;;;5002078;28;89115;-65
2022/05/01 09:56:46;;;;;;;42.90;26.93;;;21.70;48.20;;;;;;5000701;28;89106;-66
2022/05/01 09:59:15;;;;;;;48.47;27.40;;;21.70;48.80;;;;;;5001344;28;88651;-66
2022/05/01 10:01:55;;;;;;;39.23;26.40;;;21.70;48.00;;;;;;5001223;28;90651;-66
2022/05/01 10:04:24;;;;;;;46.47;25.90;;;21.70;48.00;;;;;;5000345;28;90013;-65
2022/05/01 10:06:53;;;;;;;43.97;25.63;;;21.70;47.90;;;;;;5000790;28;88527;-65
2022/05/01 10:09:22;;;;;;;41.03;25.53;;;21.70;48.40;;;;;;5000458;28;88864;-66
2022/05/01 10:11:54;;;;;;;35.53;23.57;;;21.70;47.70;;;;;;5005730;28;90763;-65
2022/05/01 10:14:22;;;;;;;35.23;23.03;;;21.70;47.60;;;;;;5001095;28;90166;-65
2022/05/01 10:16:50;;;;;;;36.37;22.60;;;21.80;47.70;;;;;;5006354;28;90432;-65
2022/05/01 10:19:18;;;;;;;34.50;21.90;;;21.80;47.60;;;;;;5014833;28;88602;-65
2022/05/01 10:21:49;;;;;;;32.30;21.37;;;21.80;47.50;;;;;;5018483;28;92483;-66
2022/05/01 10:24:17;;;;;;;38.17;21.63;;;21.80;47.40;;;;;;5016597;28;90000;-67
2022/05/01 10:26:51;;;;;;;33.10;18.37;;;21.80;47.40;;;;;;5019561;28;88518;-66
2022/05/01 10:32:20;;;;;;;26.70;19.03;;;21.90;47.40;;;;;;5019728;28;88666;-66
2022/05/01 10:33:07;;;;;;;26.00;17.37;;;21.90;47.30;;;;;;5016961;28;90717;-66
2022/05/01 10:36:04;;;;;;;31.63;18.30;;;21.80;47.20;;;;;;5017232;28;91380;-66
2022/05/01 10:38:39;;;;;;;25.27;17.67;;;21.80;47.30;;;;;;5020262;28;88534;-66
2022/05/01 10:41:08;;;;;;;23.60;16.37;;;21.90;47.30;;;;;;5020331;28;88590;-66
2022/05/01 10:43:37;;;;;;;33.93;15.43;;;21.90;47.20;;;;;;5011588;28;88417;-66
2022/05/01 10:46:27;;;;;;;25.37;16.07;;;21.90;47.20;;;;;;5003488;28;89030;-66
2022/05/01 10:49:00;;;;;;;31.33;15.67;;;21.90;47.10;;;;;;5012004;28;88568;-67
2022/05/01 10:51:46;;;;;;;31.10;16.33;;;21.90;47.00;;;;;;5014198;28;88550;-67
2022/05/01 10:54:37;;;;;;;24.83;15.43;;;21.90;47.00;;;;;;5017189;28;90670;-66
2022/05/01 10:57:11;;;;;;;26.47;15.23;;;21.90;46.90;;;;;;5014150;28;92537;-66
2022/05/01 10:59:42;;;;;;;18.47;13.60;;;22.00;46.80;;;;;;4999128;28;88577;-66
2022/05/01 11:02:35;;;;;;;21.13;14.53;;;22.00;46.70;;;;;;4998930;28;88523;-66
2022/05/01 11:05:04;;;;;;;23.57;14.17;;;22.00;46.70;;;;;;5004293;28;90698;-67
2022/05/01 11:07:34;;;;;;;21.03;13.67;;;22.00;46.60;;;;;;5004703;28;89003;-67
2022/05/01 11:10:04;;;;;;;28.63;14.50;;;22.00;46.60;;;;;;5006581;28;89191;-66
2022/05/01 11:12:33;;;;;;;18.17;13.27;;;22.00;46.60;;;;;;4999462;28;88382;-66
2022/05/01 11:15:02;;;;;;;21.87;13.07;;;22.00;47.20;;;;;;5008820;28;89719;-66
2022/05/01 11:17:51;;;;;;;16.70;11.90;;;22.00;46.50;;;;;;5000258;28;92027;-67
2022/05/01 11:20:32;;;;;;;23.10;12.40;;;22.00;46.40;;;;;;5000031;28;88449;-66
2022/05/01 11:23:35;;;;;;;16.27;11.43;;;22.00;46.20;;;;;;5002047;28;88608;-67
2022/05/01 11:26:17;;;;;;;19.67;10.60;;;22.10;46.30;;;;;;4998296;28;91126;-65
2022/05/01 11:28:49;;;;;;;17.60;10.80;;;22.10;46.10;;;;;;5000998;28;89225;-67
2022/05/01 11:31:44;;;;;;;18.03;11.57;;;22.10;46.00;;;;;;4999612;28;88987;-66
2022/05/01 11:34:51;;;;;;;19.17;11.53;;;22.10;46.00;;;;;;5001938;28;88986;-66
2022/05/01 11:37:20;;;;;;;20.37;11.47;;;22.10;46.00;;;;;;4998236;28;90635;-66
2022/05/01 11:40:24;;;;;;;15.10;10.43;;;22.10;45.90;;;;;;4998749;28;92227;-67
2022/05/01 11:42:52;;;;;;;14.90;9.73;;;22.10;46.00;;;;;;4999174;28;88680;-66
2022/05/01 11:45:20;;;;;;;13.73;9.80;;;22.10;45.70;;;;;;5010127;28;88663;-66
2022/05/01 11:47:52;;;;;;;13.53;8.30;;;22.10;45.60;;;;;;5000005;28;93581;-66
2022/05/01 11:50:23;;;;;;;11.47;8.43;;;22.10;45.50;;;;;;4998752;28;90377;-67
2022/05/01 11:52:54;;;;;;;11.67;7.77;;;22.10;45.30;;;;;;4999705;28;88509;-66
2022/05/01 12:02:24;;;;;;;9.37;6.27;;;22.10;45.10;;;;;;5000080;28;88453;-67
2022/05/01 12:03:54;;;;;;;8.00;4.77;;;22.00;44.40;;;;;;4999255;28;88584;-66
2022/05/01 12:06:28;;;;;;;5.37;4.40;;;22.00;44.10;;;;;;5000574;28;88454;-66
2022/05/01 12:08:57;;;;;;;6.90;4.23;;;22.00;44.00;;;;;;5002858;28;93643;-67
2022/05/01 12:11:32;;;;;;;5.53;4.10;;;22.00;43.70;;;;;;5000532;28;92953;-66
2022/05/01 12:14:04;;;;;;;6.67;4.50;;;21.90;43.40;;;;;;4999076;28;88524;-66
2022/05/01 12:16:33;;;;;;;6.10;4.33;;;21.90;43.30;;;;;;5000280;28;88437;-66
2022/05/01 12:19:01;;;;;;;6.73;4.57;;;21.90;43.30;;;;;;5000897;28;90860;-66
2022/05/01 12:21:32;;;;;;;6.57;4.10;;;21.90;43.20;;;;;;5000505;28;90638;-66
2022/05/01 12:24:07;;;;;;;7.03;3.80;;;22.00;43.20;;;;;;5001155;28;88359;-66
2022/05/01 12:26:37;;;;;;;7.50;3.50;;;22.00;43.10;;;;;;5001738;28;88500;-66
2022/05/01 12:29:09;;;;;;;8.57;4.87;;;22.00;43.00;;;;;;5001443;28;89796;-66
2022/05/01 12:31:59;;;;;;;5.73;3.40;;;22.00;42.90;;;;;;5001303;28;91260;-66
2022/05/01 12:34:27;;;;;;;4.77;3.43;;;22.00;42.90;;;;;;5000898;28;88316;-67
2022/05/01 12:36:57;;;;;;;4.77;3.60;;;22.10;42.80;;;;;;5000777;28;88393;-66
2022/05/01 12:39:26;;;;;;;4.00;3.43;;;22.10;42.70;;;;;;5000688;28;93607;-66
2022/05/01 12:45:10;;;;;;;4.40;3.23;;;22.10;42.70;;;;;;5001014;28;88464;-66
2022/05/01 12:47:39;;;;;;;4.63;3.30;;;22.10;42.60;;;;;;5005448;28;89169;-67
2022/05/01 12:50:08;;;;;;;4.10;2.90;;;22.10;42.50;;;;;;5013241;28;91022;-67
2022/05/01 12:52:39;;;;;;;6.57;3.63;;;22.10;42.50;;;;;;5010578;28;90030;-66
2022/05/01 12:55:09;;;;;;;3.03;2.53;;;22.10;42.40;;;;;;5022036;28;88455;-67
2022/05/01 12:57:40;;;;;;;7.23;3.00;;;22.20;42.40;;;;;;5002380;28;88407;-66
2022/05/01 13:00:08;;;;;;;4.70;2.80;;;22.20;42.40;;;;;;5001074;28;93726;-66
2022/05/01 13:02:37;;;;;;;4.07;2.67;;;22.30;42.60;;;;;;5000529;28;90409;-66
2022/05/01 13:05:07;;;;;;;4.40;2.67;;;22.30;42.60;;;;;;5000639;28;88444;-67
2022/05/01 13:07:42;;;;;;;5.20;2.73;;;22.30;42.60;;;;;;5031773;28;88290;-66
2022/05/01 13:10:17;;;;;;;6.73;2.83;;;22.30;42.40;;;;;;5001042;28;91166;-67
2022/05/01 13:12:45;;;;;;;5.23;2.07;;;22.30;42.40;;;;;;5001323;28;90052;-67
2022/05/01 13:15:13;;;;;;;2.50;2.20;;;22.30;42.30;;;;;;5004114;28;88569;-67
2022/05/01 13:17:41;;;;;;;3.03;2.40;;;22.30;42.30;;;;;;5011412;28;89147;-67
2022/05/01 13:20:10;;;;;;;2.77;2.00;;;22.30;42.10;;;;;;5024253;28;90689;-66
2022/05/01 13:22:38;;;;;;;2.63;2.20;;;22.40;42.20;;;;;;5024018;28;90093;-67